createdAt,value
2019-01-28T00:00:11.461Z,98330.98
2019-01-28T00:02:42.337Z,98341.27
2019-01-28T00:05:13.131Z,98336.64
2019-01-28T00:07:43.580Z,98328.97
2019-01-28T00:10:14.087Z,98342.12
2019-01-28T00:12:44.845Z,98331.95
2019-01-28T00:15:16.089Z,98334.08
2019-01-28T00:17:46.810Z,98331.36
2019-01-28T00:20:17.286Z,98329.56
2019-01-28T00:22:47.766Z,98328.72
2019-01-28T00:25:18.254Z,98331.61
2019-01-28T00:27:49.031Z,98337.38
2019-01-28T00:30:20.149Z,98343.77
2019-01-28T00:32:50.939Z,98319.78
2019-01-28T00:35:21.694Z,98330.59
2019-01-28T00:37:52.119Z,98324.67
2019-01-28T00:40:22.538Z,98321.70
2019-01-28T00:42:53.294Z,98317.00
2019-01-28T00:45:24.252Z,98324.27
2019-01-28T00:47:55.039Z,98329.59
2019-01-28T00:50:25.516Z,98323.61
2019-01-28T00:52:55.943Z,98328.23
2019-01-28T00:55:26.642Z,98313.14
2019-01-28T00:57:57.302Z,98315.86
2019-01-28T01:00:30.386Z,98312.44
2019-01-28T01:03:00.852Z,98313.33
2019-01-28T01:05:31.384Z,98316.73
2019-01-28T01:08:02.125Z,98308.30
2019-01-28T01:10:32.570Z,98300.91
2019-01-28T01:13:03.532Z,98310.50
2019-01-28T01:15:33.993Z,98311.01
2019-01-28T01:18:04.863Z,98308.62
2019-01-28T01:20:35.355Z,98306.42
2019-01-28T01:23:06.373Z,98302.75
2019-01-28T01:25:37.077Z,98304.55
2019-01-28T01:28:07.580Z,98313.98
2019-01-28T01:30:38.309Z,98297.86
2019-01-28T01:33:08.752Z,98294.59
2019-01-28T01:35:39.114Z,98294.63
2019-01-28T01:38:09.573Z,98302.52
2019-01-28T01:40:40.046Z,98296.53
2019-01-28T01:43:10.485Z,98295.83
2019-01-28T01:45:40.982Z,98286.75
2019-01-28T01:48:11.728Z,98291.55
2019-01-28T01:50:42.210Z,98285.97
2019-01-28T01:53:12.653Z,98276.76
2019-01-28T01:55:43.374Z,98265.64
2019-01-28T01:58:13.844Z,98270.07
2019-01-28T02:00:44.338Z,98276.16
2019-01-28T02:03:14.797Z,98265.88
2019-01-28T02:05:45.366Z,98276.59
2019-01-28T02:08:16.118Z,98272.08
2019-01-28T02:10:46.555Z,98261.80
2019-01-28T02:13:17.013Z,98269.17
2019-01-28T02:15:47.798Z,98258.80
2019-01-28T02:18:18.201Z,98246.40
2019-01-28T02:20:48.943Z,98247.82
2019-01-28T02:23:19.702Z,98243.64
2019-01-28T02:25:50.138Z,98234.14
2019-01-28T02:28:21.126Z,98239.78
2019-01-28T02:30:51.672Z,98238.53
2019-01-28T02:33:22.103Z,98231.31
2019-01-28T02:35:52.530Z,98236.62
2019-01-28T02:38:23.196Z,98228.28
2019-01-28T02:40:54.121Z,98227.91
2019-01-28T02:43:24.771Z,98227.98
2019-01-28T02:45:55.228Z,98229.70
2019-01-28T02:48:25.668Z,98224.13
2019-01-28T02:50:56.122Z,98217.37
2019-01-28T02:53:26.615Z,98212.62
2019-01-28T02:55:56.961Z,98241.25
2019-01-28T02:58:27.433Z,98224.30
2019-01-28T03:00:58.174Z,98213.41
2019-01-28T03:03:28.592Z,98208.84
2019-01-28T03:05:59.065Z,98206.86
2019-01-28T03:08:29.820Z,98212.02
2019-01-28T03:11:00.224Z,98210.47
2019-01-28T03:13:30.677Z,98207.47
2019-01-28T03:16:01.382Z,98200.31
2019-01-28T03:18:31.873Z,98197.81
2019-01-28T03:21:02.337Z,98202.00
2019-01-28T03:23:33.050Z,98201.73
2019-01-28T03:26:03.498Z,98199.53
2019-01-28T03:28:34.264Z,98194.84
2019-01-28T03:31:04.717Z,98206.90
2019-01-28T03:33:35.095Z,98200.99
2019-01-28T03:36:05.648Z,98187.32
2019-01-28T03:38:36.127Z,98191.06
2019-01-28T03:41:06.545Z,98191.84
2019-01-28T03:43:37.019Z,98191.40
2019-01-28T03:46:09.785Z,98192.34
2019-01-28T03:48:40.230Z,98191.00
2019-01-28T03:51:10.755Z,98186.34
2019-01-28T03:53:41.672Z,98188.44
2019-01-28T03:56:12.132Z,98191.33
2019-01-28T03:58:42.824Z,98198.08
2019-01-28T04:01:13.855Z,98197.64
2019-01-28T04:03:44.345Z,98191.23
2019-01-28T04:06:14.978Z,98196.30
2019-01-28T04:08:45.453Z,98199.70
2019-01-28T04:11:16.472Z,98196.36
2019-01-28T04:13:46.908Z,98203.62
2019-01-28T04:16:17.379Z,98224.08
2019-01-28T04:18:47.816Z,98202.34
2019-01-28T04:21:18.185Z,98203.28
2019-01-28T04:23:48.892Z,98201.56
2019-01-28T04:26:21.980Z,98204.23
2019-01-28T04:28:52.431Z,98201.59
2019-01-28T04:31:22.856Z,98208.08
2019-01-28T04:33:53.311Z,98206.86
2019-01-28T04:36:23.839Z,98205.92
2019-01-28T04:38:56.185Z,98205.17
2019-01-28T04:41:26.691Z,98203.63
2019-01-28T04:43:57.452Z,98199.03
2019-01-28T04:46:27.889Z,98202.67
2019-01-28T04:48:58.333Z,98195.09
2019-01-28T04:51:30.716Z,98192.63
2019-01-28T04:54:01.546Z,98196.09
2019-01-28T04:56:32.075Z,98188.77
2019-01-28T04:59:02.798Z,98190.12
2019-01-28T05:01:33.257Z,98195.52
2019-01-28T05:04:03.713Z,98193.91
2019-01-28T05:06:34.450Z,98199.27
2019-01-28T05:09:08.141Z,98192.41
2019-01-28T05:11:38.963Z,98194.14
2019-01-28T05:14:09.375Z,98196.27
2019-01-28T05:16:40.096Z,98195.42
2019-01-28T05:19:10.835Z,98189.34
2019-01-28T05:21:41.296Z,98193.56
2019-01-28T05:24:11.742Z,98199.54
2019-01-28T05:26:42.119Z,98195.36
2019-01-28T05:29:12.756Z,98192.41
2019-01-28T05:31:43.177Z,98194.14
2019-01-28T05:34:13.628Z,98196.20
2019-01-28T05:36:44.328Z,98203.28
2019-01-28T05:39:14.796Z,98199.34
2019-01-28T05:41:45.293Z,98191.07
2019-01-28T05:44:16.007Z,98194.64
2019-01-28T05:46:46.461Z,98192.18
2019-01-28T05:49:17.111Z,98194.20
2019-01-28T05:51:47.519Z,98203.28
2019-01-28T05:54:18.003Z,98203.38
2019-01-28T05:56:48.559Z,98210.70
2019-01-28T05:59:19.257Z,98202.67
2019-01-28T06:01:49.713Z,98212.09
2019-01-28T06:04:20.185Z,98220.56
2019-01-28T06:06:50.716Z,98216.78
2019-01-28T06:09:21.367Z,98226.70
2019-01-28T06:11:52.098Z,98223.73
2019-01-28T06:14:22.905Z,98230.27
2019-01-28T06:16:53.269Z,98218.22
2019-01-28T06:19:23.770Z,98238.67
2019-01-28T06:21:54.118Z,98226.92
2019-01-28T06:24:24.585Z,98237.22
2019-01-28T06:26:55.043Z,98245.22
2019-01-28T06:29:25.476Z,98234.83
2019-01-28T06:31:55.904Z,98233.61
2019-01-28T06:34:26.370Z,98243.87
2019-01-28T06:36:56.808Z,98241.48
2019-01-28T06:39:27.210Z,98243.77
2019-01-28T06:41:57.659Z,98237.30
2019-01-28T06:44:28.008Z,98235.41
2019-01-28T06:46:58.509Z,98245.42
2019-01-28T06:49:28.965Z,98245.42
2019-01-28T06:51:59.418Z,98250.55
2019-01-28T06:54:29.951Z,98262.94
2019-01-28T06:57:00.628Z,98264.48
2019-01-28T06:59:31.110Z,98261.58
2019-01-28T07:02:01.643Z,98276.02
2019-01-28T07:04:32.129Z,98266.61
2019-01-28T07:07:02.876Z,98265.39
2019-01-28T07:09:33.468Z,98266.70
2019-01-28T07:12:03.919Z,98268.92
2019-01-28T07:14:34.308Z,98270.11
2019-01-28T07:17:05.067Z,98274.80
2019-01-28T07:19:35.823Z,98268.45
2019-01-28T07:22:06.545Z,98272.67
2019-01-28T07:24:37.022Z,98271.83
2019-01-28T07:27:07.494Z,98272.14
2019-01-28T07:29:37.926Z,98274.20
2019-01-28T07:32:09.358Z,98283.02
2019-01-28T07:34:40.476Z,98289.87
2019-01-28T07:37:10.879Z,98284.58
2019-01-28T07:39:41.350Z,98283.23
2019-01-28T07:42:12.035Z,98293.49
2019-01-28T07:44:42.467Z,98299.47
2019-01-28T07:47:12.984Z,98298.02
2019-01-28T07:49:43.414Z,98302.31
2019-01-28T07:52:14.172Z,98307.88
2019-01-28T07:54:44.668Z,98309.41
2019-01-28T07:57:15.124Z,98308.53
2019-01-28T07:59:45.622Z,98316.23
2019-01-28T08:02:16.087Z,98308.91
2019-01-28T08:04:46.791Z,98305.46
2019-01-28T08:07:17.302Z,98311.24
2019-01-28T08:09:47.829Z,98322.69
2019-01-28T08:12:18.195Z,98326.34
2019-01-28T08:14:48.907Z,98330.98
2019-01-28T08:17:19.346Z,98326.19
2019-01-28T08:19:49.791Z,98325.68
2019-01-28T08:22:20.170Z,98335.31
2019-01-28T08:24:50.896Z,98343.25
2019-01-28T08:27:21.402Z,98348.63
2019-01-28T08:29:51.951Z,98354.81
2019-01-28T08:32:22.794Z,98355.43
2019-01-28T08:34:53.240Z,98369.72
2019-01-28T08:37:23.729Z,98362.97
2019-01-28T08:39:55.693Z,98362.02
2019-01-28T08:42:26.515Z,98374.19
2019-01-28T08:44:56.982Z,98378.98
2019-01-28T08:47:27.502Z,98378.37
2019-01-28T08:49:58.010Z,98385.63
2019-01-28T08:52:28.707Z,98384.44
2019-01-28T08:54:59.172Z,98393.77
2019-01-28T08:57:29.625Z,98391.62
2019-01-28T09:00:00.195Z,98407.64
2019-01-28T09:02:30.869Z,98409.92
2019-01-28T09:05:01.519Z,98418.94
2019-01-28T09:07:32.019Z,98417.77
2019-01-28T09:10:03.141Z,98428.31
2019-01-28T09:12:33.561Z,98431.08
2019-01-28T09:15:04.708Z,98429.17
2019-01-28T09:17:35.638Z,98440.89
2019-01-28T09:20:11.257Z,98441.92
2019-01-28T09:22:42.014Z,98446.37
2019-01-28T09:25:13.152Z,98454.70
2019-01-28T09:27:43.945Z,98456.52
2019-01-28T09:30:25.346Z,98474.83
2019-01-28T09:32:56.112Z,98472.91
2019-01-28T09:35:26.598Z,98480.96
2019-01-28T09:37:57.388Z,98489.60
2019-01-28T09:40:30.926Z,98492.03
2019-01-28T09:43:01.647Z,98499.64
2019-01-28T09:45:35.836Z,98500.93
2019-01-28T09:48:07.180Z,98507.70
2019-01-28T09:50:37.606Z,98513.28
2019-01-28T09:53:08.674Z,98519.66
2019-01-28T09:55:39.421Z,98524.25
2019-01-28T09:58:10.068Z,148731.92
2019-01-28T10:00:47.367Z,148733.19
2019-01-28T10:03:18.178Z,148720.53
2019-01-28T10:05:48.717Z,148720.53
2019-01-28T10:08:19.220Z,148720.53
2019-01-28T10:10:49.799Z,148721.81
2019-01-28T10:13:20.491Z,148715.48
2019-01-28T10:15:50.993Z,148733.19
2019-01-28T10:18:21.444Z,148717.98
2019-01-28T10:20:51.865Z,148724.31
2019-01-28T10:23:22.311Z,148716.72
2019-01-28T10:25:57.634Z,148715.48
2019-01-28T10:28:25.535Z,148707.88
2019-01-28T10:30:56.299Z,148710.42
2019-01-28T10:33:27.018Z,148700.27
2019-01-28T10:35:57.452Z,148697.77
2019-01-28T10:38:28.168Z,148700.27
2019-01-28T10:40:58.606Z,148688.89
2019-01-28T10:43:29.052Z,148683.84
2019-01-28T10:45:59.520Z,148681.33
2019-01-28T10:48:30.282Z,148682.56
2019-01-28T10:51:00.742Z,148700.27
2019-01-28T10:53:31.201Z,148680.06
2019-01-28T10:56:01.657Z,148672.45
2019-01-28T10:58:32.345Z,148673.73
2019-01-28T11:01:03.308Z,148673.73
2019-01-28T11:03:53.210Z,148676.28
2019-01-28T11:06:24.116Z,148668.69
2019-01-28T11:08:54.901Z,148672.45
2019-01-28T11:11:25.582Z,148669.95
2019-01-28T11:13:56.261Z,148666.12
2019-01-28T11:16:27.341Z,148662.34
2019-01-28T11:18:58.199Z,148662.34
2019-01-28T11:21:29.021Z,148664.84
2019-01-28T11:23:59.772Z,148666.12
2019-01-28T11:26:30.256Z,148661.08
2019-01-28T11:29:00.966Z,148657.30
2019-01-28T11:31:31.924Z,148664.84
2019-01-28T11:34:02.572Z,148668.69
2019-01-28T11:36:33.639Z,148673.73
2019-01-28T11:39:06.226Z,148666.12
2019-01-28T11:41:36.841Z,148658.58
2019-01-28T11:44:07.512Z,148668.69
2019-01-28T11:46:38.174Z,148681.33
2019-01-28T11:49:08.858Z,148681.33
2019-01-28T11:51:39.587Z,148667.41
2019-01-28T11:54:10.384Z,148667.41
2019-01-28T11:56:41.246Z,148663.62
2019-01-28T11:59:11.867Z,148661.08
2019-01-28T12:01:42.702Z,148656.02
2019-01-28T12:04:13.300Z,148658.58
2019-01-28T12:06:44.266Z,148656.02
2019-01-28T12:09:15.130Z,148643.38
2019-01-28T12:11:45.621Z,148638.31
2019-01-28T12:14:16.274Z,148628.22
2019-01-28T12:16:46.748Z,148628.22
2019-01-28T12:19:17.579Z,148630.72
2019-01-28T12:21:48.117Z,148637.03
2019-01-28T12:24:18.870Z,148633.25
2019-01-28T12:26:49.413Z,148628.22
2019-01-28T12:29:20.202Z,148623.16
2019-01-28T12:31:50.655Z,148619.33
2019-01-28T12:34:21.947Z,148607.95
2019-01-28T12:36:52.360Z,148599.13
2019-01-28T12:39:23.028Z,148594.08
2019-01-28T12:41:53.371Z,148583.97
2019-01-28T12:44:24.204Z,148580.16
2019-01-28T12:46:54.839Z,148567.50
2019-01-28T12:49:25.510Z,148577.64
2019-01-28T12:51:56.275Z,148580.16
2019-01-28T12:54:26.646Z,148577.64
2019-01-28T12:56:57.332Z,148572.59
2019-01-28T12:59:28.041Z,148576.37
2019-01-28T13:01:58.532Z,148580.16
2019-01-28T13:04:29.017Z,148567.50
2019-01-28T13:06:59.515Z,148561.22
2019-01-28T13:09:30.288Z,148563.72
2019-01-28T13:12:00.996Z,148570.05
2019-01-28T13:14:31.696Z,148562.44
2019-01-28T13:17:02.109Z,148547.30
2019-01-28T13:19:32.525Z,148553.63
2019-01-28T13:22:03.156Z,148547.30
2019-01-28T13:24:33.897Z,148544.73
2019-01-28T13:27:04.423Z,148557.39
2019-01-28T13:29:34.910Z,148548.56
2019-01-28T13:32:05.456Z,148568.77
2019-01-28T13:34:35.884Z,148568.77
2019-01-28T13:37:06.347Z,148562.44
2019-01-28T13:39:36.765Z,148587.75
2019-01-28T13:42:07.445Z,148570.05
2019-01-28T13:44:37.902Z,148600.41
2019-01-28T13:47:08.390Z,148615.56
2019-01-28T13:49:38.841Z,148624.44
2019-01-28T13:52:09.403Z,148630.72
2019-01-28T13:54:39.829Z,148623.16
2019-01-28T13:57:10.332Z,148638.31
2019-01-28T13:59:40.902Z,148631.98
2019-01-28T14:02:11.606Z,148634.53
2019-01-28T14:04:42.289Z,148645.92
2019-01-28T14:07:13.055Z,148649.69
2019-01-28T14:09:43.811Z,148623.16
2019-01-28T14:12:14.245Z,148618.11
2019-01-28T14:14:44.616Z,148615.56
2019-01-28T14:17:14.965Z,148616.83
2019-01-28T14:19:46.455Z,148611.78
2019-01-28T14:22:17.174Z,148613.06
2019-01-28T14:24:48.048Z,148613.06
2019-01-28T14:27:18.468Z,148602.91
2019-01-28T14:29:48.946Z,148602.91
2019-01-28T14:32:19.456Z,148590.30
2019-01-28T14:34:49.891Z,148585.20
2019-01-28T14:37:20.329Z,148572.59
2019-01-28T14:39:51.063Z,148566.27
2019-01-28T14:42:21.494Z,148566.27
2019-01-28T14:44:52.980Z,148558.67
2019-01-28T14:47:23.420Z,148552.34
2019-01-28T14:49:54.674Z,148547.30
2019-01-28T14:52:25.229Z,148548.56
2019-01-28T14:54:56.433Z,148554.89
2019-01-28T14:57:27.069Z,148551.06
2019-01-28T14:59:57.594Z,148547.30
2019-01-28T15:02:28.110Z,148556.13
2019-01-28T15:04:58.573Z,148561.22
2019-01-28T15:07:29.390Z,148558.67
2019-01-28T15:09:59.991Z,148563.72
2019-01-28T15:12:30.715Z,148573.81
2019-01-28T15:15:01.166Z,148580.16
2019-01-28T15:17:31.654Z,148592.80
2019-01-28T15:20:02.840Z,148605.45
2019-01-28T15:22:33.384Z,148602.91
2019-01-28T15:25:04.519Z,148599.13
2019-01-28T15:27:34.964Z,148594.08
2019-01-28T15:30:07.565Z,148590.30
2019-01-28T15:32:38.205Z,148605.45
2019-01-28T15:35:11.465Z,148600.41
2019-01-28T15:37:41.954Z,148600.41
2019-01-28T15:40:16.883Z,148602.91
2019-01-28T15:42:47.668Z,148610.50
2019-01-28T15:45:24.916Z,148604.19
2019-01-28T15:47:55.451Z,148615.56
2019-01-28T15:50:26.552Z,148625.66
2019-01-28T15:52:56.971Z,148615.56
2019-01-28T15:55:34.070Z,148611.78
2019-01-28T15:58:05.057Z,148621.88
2019-01-28T16:00:35.612Z,148624.44
2019-01-28T16:03:08.818Z,148628.22
2019-01-28T16:05:39.415Z,148620.61
2019-01-28T16:08:10.317Z,148623.16
2019-01-28T16:10:41.058Z,148609.23
2019-01-28T16:13:11.512Z,148602.91
2019-01-28T16:15:45.326Z,148597.84
2019-01-28T16:18:16.017Z,148578.92
2019-01-28T16:20:46.718Z,148577.64
2019-01-28T16:23:17.198Z,148559.94
2019-01-28T16:25:47.660Z,148546.02
2019-01-28T16:28:18.383Z,148565.00
2019-01-28T16:30:48.852Z,148547.30
2019-01-28T16:33:19.588Z,148539.69
2019-01-28T16:35:50.003Z,148527.09
2019-01-28T16:38:20.664Z,148501.80
2019-01-28T16:40:51.135Z,148498.02
2019-01-28T16:43:22.043Z,148477.77
2019-01-28T16:45:52.448Z,148466.39
2019-01-28T16:48:23.106Z,148477.77
2019-01-28T16:50:53.792Z,148471.44
2019-01-28T16:53:24.748Z,148458.80
2019-01-28T16:55:55.440Z,148466.39
2019-01-28T16:58:26.145Z,148443.66
2019-01-28T17:00:56.695Z,148449.97
2019-01-28T17:03:27.764Z,148441.16
2019-01-28T17:05:58.725Z,148428.50
2019-01-28T17:08:29.202Z,148429.78
2019-01-28T17:10:59.707Z,148404.50
2019-01-28T17:13:30.215Z,148417.14
2019-01-28T17:16:00.681Z,148409.53
2019-01-28T17:18:31.215Z,148388.08
2019-01-28T17:21:01.653Z,148367.83
2019-01-28T17:23:32.090Z,148369.11
2019-01-28T17:26:02.936Z,148379.20
2019-01-28T17:28:33.377Z,148393.13
2019-01-28T17:31:03.908Z,148413.31
2019-01-28T17:33:34.663Z,148423.47
2019-01-28T17:36:05.394Z,148423.47
2019-01-28T17:38:35.996Z,148443.66
2019-01-28T17:41:06.682Z,148455.03
2019-01-28T17:43:37.179Z,148467.67
2019-01-28T17:46:07.692Z,148467.67
2019-01-28T17:48:38.275Z,148471.44
2019-01-28T17:51:09.051Z,148474.00
2019-01-28T17:53:39.496Z,148474.00
2019-01-28T17:56:10.029Z,148471.44
2019-01-28T17:58:40.604Z,148477.77
2019-01-28T18:01:11.077Z,148472.72
2019-01-28T18:03:41.588Z,148479.05
2019-01-28T18:06:12.123Z,148474.00
2019-01-28T18:08:42.622Z,148474.00
2019-01-28T18:11:13.081Z,148467.67
2019-01-28T18:13:43.543Z,148470.17
2019-01-28T18:16:14.540Z,148466.39
2019-01-28T18:18:45.399Z,148475.27
2019-01-28T18:21:16.085Z,148468.94
2019-01-28T18:23:51.411Z,148470.17
2019-01-28T18:26:22.029Z,148461.34
2019-01-28T18:28:52.473Z,148465.13
2019-01-28T18:31:23.212Z,148476.50
2019-01-28T18:33:53.640Z,148476.50
2019-01-28T18:36:24.101Z,148466.39
2019-01-28T18:38:56.068Z,148448.70
2019-01-28T18:41:27.173Z,148448.70
2019-01-28T18:43:58.345Z,148428.50
2019-01-28T18:46:29.219Z,148420.91
2019-01-28T18:48:59.652Z,148418.41
2019-01-28T18:51:30.528Z,148386.80
2019-01-28T18:54:01.523Z,148365.34
2019-01-28T18:56:31.899Z,148355.25
2019-01-28T18:59:02.616Z,148348.92
2019-01-28T19:01:33.080Z,148343.88
2019-01-28T19:04:03.865Z,148332.50
2019-01-28T19:06:51.643Z,148332.50
2019-01-28T19:09:35.726Z,148324.91
2019-01-28T19:12:29.345Z,148316.05
2019-01-28T19:15:05.071Z,148293.31
2019-01-28T19:17:49.649Z,148264.27
2019-01-28T19:20:25.345Z,148259.22
2019-01-28T19:22:55.765Z,148239.03
2019-01-28T19:25:26.246Z,148251.67
2019-01-28T19:27:56.686Z,148246.63
2019-01-28T19:30:27.306Z,148244.08
2019-01-28T19:32:58.292Z,148252.91
2019-01-28T19:35:29.039Z,148255.45
2019-01-28T19:37:59.647Z,148235.27
2019-01-28T19:40:30.346Z,148218.81
2019-01-28T19:43:01.027Z,148202.41
2019-01-28T19:45:31.760Z,148192.31
2019-01-28T19:48:02.274Z,148167.05
2019-01-28T19:50:33.456Z,148146.88
2019-01-28T19:53:04.564Z,148120.39
2019-01-28T19:55:35.312Z,148119.11
2019-01-28T19:58:06.247Z,148107.75
2019-01-28T20:00:37.062Z,148095.13
2019-01-28T20:03:11.002Z,148102.72
2019-01-28T20:05:41.797Z,148098.89
2019-01-28T20:08:12.553Z,148090.08
2019-01-28T20:10:43.132Z,148107.75
2019-01-28T20:13:13.991Z,148096.39
2019-01-28T20:15:44.447Z,148092.58
2019-01-28T20:18:15.275Z,148078.72
2019-01-28T20:20:46.139Z,148069.86
2019-01-28T20:23:16.709Z,148078.72
2019-01-28T20:25:47.594Z,148081.22
2019-01-28T20:28:18.254Z,148105.20
2019-01-28T20:30:49.075Z,148097.67
2019-01-28T20:33:20.147Z,148105.20
2019-01-28T20:35:51.003Z,148112.80
2019-01-28T20:38:22.112Z,148121.61
2019-01-28T20:40:52.881Z,148112.80
2019-01-28T20:43:24.427Z,148117.84
2019-01-28T20:45:55.088Z,148114.06
2019-01-28T20:48:25.647Z,148115.34
2019-01-28T20:50:56.259Z,148116.56
2019-01-28T20:53:27.223Z,148120.39
2019-01-28T20:55:57.980Z,148125.42
2019-01-28T20:58:28.815Z,148136.78
2019-01-28T21:00:59.823Z,148138.06
2019-01-28T21:03:30.467Z,148138.06
2019-01-28T21:06:01.471Z,148139.28
2019-01-28T21:08:32.766Z,148141.83
2019-01-28T21:11:03.931Z,148139.28
2019-01-28T21:13:35.114Z,148148.14
2019-01-28T21:16:06.089Z,148148.14
2019-01-28T21:18:36.681Z,148148.14
2019-01-28T21:21:07.527Z,148153.19
2019-01-28T21:23:38.733Z,148132.97
2019-01-28T21:26:09.366Z,148120.39
2019-01-28T21:28:42.669Z,148100.17
2019-01-28T21:31:13.708Z,148083.77
2019-01-28T21:33:44.362Z,148071.14
2019-01-28T21:36:33.955Z,148052.25
2019-01-28T21:39:08.177Z,148052.25
2019-01-28T21:41:39.356Z,148057.28
2019-01-28T21:44:09.951Z,148057.28
2019-01-28T21:46:40.883Z,148067.38
2019-01-28T21:49:11.538Z,148072.41
2019-01-28T21:51:50.152Z,148086.31
2019-01-28T21:54:14.465Z,148093.84
2019-01-28T21:56:45.465Z,148102.72
2019-01-28T21:59:16.762Z,148107.75
2019-01-28T22:01:47.806Z,148100.17
2019-01-28T22:04:18.675Z,148101.44
2019-01-28T22:06:49.084Z,148097.67
2019-01-28T22:09:19.846Z,148091.34
2019-01-28T22:11:50.279Z,148085.03
2019-01-28T22:14:20.719Z,148072.41
2019-01-28T22:16:51.177Z,148069.86
2019-01-28T22:19:21.825Z,148067.38
2019-01-28T22:21:59.101Z,148063.59
2019-01-28T22:24:24.374Z,148062.33
2019-01-28T22:26:54.874Z,148066.09
2019-01-28T22:29:25.505Z,148076.19
2019-01-28T22:31:55.942Z,148077.45
2019-01-28T22:34:26.689Z,148078.72
2019-01-28T22:36:57.131Z,148068.64
2019-01-28T22:39:27.556Z,148069.86
2019-01-28T22:41:58.352Z,148057.28
2019-01-28T22:44:29.062Z,148049.70
2019-01-28T22:46:59.614Z,148042.11
2019-01-28T22:49:30.381Z,148043.38
2019-01-28T22:52:07.671Z,148035.80
2019-01-28T22:54:33.539Z,148028.25
2019-01-28T22:57:04.018Z,148019.41
2019-01-28T22:59:34.488Z,147999.23
2019-01-28T23:02:06.317Z,147987.89
2019-01-28T23:04:36.702Z,147982.84
2019-01-28T23:07:07.159Z,147981.58
2019-01-28T23:09:37.777Z,147980.30
2019-01-28T23:12:08.254Z,147980.30
2019-01-28T23:14:38.964Z,147977.81
2019-01-28T23:17:09.401Z,147982.84
2019-01-28T23:19:40.401Z,147995.42
2019-01-28T23:22:16.164Z,148006.78
2019-01-28T23:24:43.182Z,148023.22
2019-01-28T23:27:13.708Z,148038.34
2019-01-28T23:29:44.220Z,148052.25
2019-01-28T23:32:14.664Z,148068.64
2019-01-28T23:34:45.418Z,148076.19
2019-01-28T23:37:15.833Z,148076.19
2019-01-28T23:39:46.292Z,148069.86
2019-01-28T23:42:16.798Z,148071.14
2019-01-28T23:44:47.248Z,148091.34
2019-01-28T23:47:17.684Z,148092.58
2019-01-28T23:49:48.188Z,148086.31
2019-01-28T23:52:24.715Z,148090.08
2019-01-28T23:54:51.098Z,148091.34
2019-01-28T23:57:21.536Z,148092.58
2019-01-28T23:59:51.905Z,148093.84
